createdAt,value
2019-06-07T00:00:40.731Z,3.70
2019-06-07T00:02:43.047Z,4.10
2019-06-07T00:04:46.754Z,3.70
2019-06-07T00:06:49.689Z,3.40
2019-06-07T00:08:52.606Z,4.10
2019-06-07T00:10:55.519Z,3.03
2019-06-07T00:12:59.232Z,3.60
2019-06-07T00:15:02.166Z,3.60
2019-06-07T00:17:05.082Z,2.80
2019-06-07T00:19:09.659Z,3.03
2019-06-07T00:21:11.984Z,2.53
2019-06-07T00:23:19.971Z,3.50
2019-06-07T00:25:23.764Z,3.00
2019-06-07T00:27:22.664Z,3.23
2019-06-07T00:29:24.770Z,3.47
2019-06-07T00:31:27.687Z,2.97
2019-06-07T00:33:30.699Z,3.50
2019-06-07T00:35:33.615Z,3.53
2019-06-07T00:37:36.582Z,3.03
2019-06-07T00:39:39.492Z,2.70
2019-06-07T00:41:42.403Z,3.40
2019-06-07T00:43:45.511Z,3.33
2019-06-07T00:45:48.431Z,3.27
2019-06-07T00:47:51.355Z,3.43
2019-06-07T00:49:55.067Z,2.93
2019-06-07T00:51:58.899Z,3.07
2019-06-07T00:54:01.822Z,3.20
2019-06-07T00:56:04.779Z,2.93
2019-06-07T00:58:07.691Z,3.43
2019-06-07T01:00:12.178Z,3.30
2019-06-07T01:02:14.626Z,3.70
2019-06-07T01:04:19.439Z,2.87
2019-06-07T01:06:22.973Z,3.43
2019-06-07T01:08:27.695Z,3.17
2019-06-07T01:10:51.714Z,2.77
2019-06-07T01:12:30.814Z,3.30
2019-06-07T01:14:33.844Z,3.70
2019-06-07T01:16:56.254Z,3.57
2019-06-07T01:18:46.235Z,3.60
2019-06-07T01:20:44.227Z,2.87
2019-06-07T01:22:47.145Z,3.10
2019-06-07T01:24:50.125Z,3.17
2019-06-07T01:26:53.067Z,3.37
2019-06-07T01:28:56.750Z,3.40
2019-06-07T01:31:00.493Z,3.40
2019-06-07T01:33:04.281Z,3.50
2019-06-07T01:35:07.194Z,3.00
2019-06-07T01:37:10.141Z,2.97
2019-06-07T01:39:13.995Z,3.03
2019-06-07T01:41:17.338Z,3.13
2019-06-07T01:43:26.154Z,3.60
2019-06-07T01:45:23.631Z,2.80
2019-06-07T01:47:31.230Z,3.43
2019-06-07T01:49:29.769Z,3.80
2019-06-07T01:51:31.791Z,3.30
2019-06-07T01:53:36.217Z,3.90
2019-06-07T01:55:39.884Z,3.67
2019-06-07T01:57:47.885Z,3.20
2019-06-07T01:59:45.980Z,3.10
2019-06-07T02:01:48.853Z,4.10
2019-06-07T02:03:51.786Z,4.30
2019-06-07T02:05:55.403Z,3.17
2019-06-07T02:07:58.330Z,4.23
2019-06-07T02:10:02.066Z,3.80
2019-06-07T02:12:25.002Z,4.83
2019-06-07T02:14:08.008Z,3.67
2019-06-07T02:16:11.791Z,3.80
2019-06-07T02:18:14.768Z,4.27
2019-06-07T02:20:17.647Z,3.50
2019-06-07T02:22:22.909Z,4.20
2019-06-07T02:24:25.248Z,3.90
2019-06-07T02:26:29.957Z,3.43
2019-06-07T02:28:44.396Z,4.70
2019-06-07T02:30:47.268Z,3.83
2019-06-07T02:32:37.459Z,4.30
2019-06-07T02:34:40.327Z,3.30
2019-06-07T02:36:43.309Z,3.83
2019-06-07T02:38:46.803Z,4.00
2019-06-07T02:40:50.142Z,3.55
2019-06-07T02:42:53.017Z,4.00
2019-06-07T02:44:55.905Z,3.90
2019-06-07T02:46:58.810Z,3.77
2019-06-07T02:49:01.681Z,3.13
2019-06-07T02:51:05.327Z,2.93
2019-06-07T02:53:08.251Z,3.23
2019-06-07T02:55:12.133Z,4.03
2019-06-07T02:57:15.039Z,3.87
2019-06-07T02:59:18.026Z,3.30
2019-06-07T03:01:20.918Z,3.40
2019-06-07T03:03:24.709Z,3.17
2019-06-07T03:05:29.847Z,3.47
2019-06-07T03:07:35.416Z,3.03
2019-06-07T03:09:36.794Z,3.87
2019-06-07T03:11:38.966Z,3.20
2019-06-07T03:13:41.184Z,4.03
2019-06-07T03:15:49.807Z,3.97
2019-06-07T03:17:49.867Z,3.53
2019-06-07T03:19:53.255Z,3.57
2019-06-07T03:21:56.204Z,3.70
2019-06-07T03:23:59.127Z,3.43
2019-06-07T03:26:02.038Z,3.13
2019-06-07T03:28:05.752Z,4.10
2019-06-07T03:30:35.920Z,3.87
2019-06-07T03:32:12.411Z,3.87
2019-06-07T03:34:15.434Z,4.20
2019-06-07T03:36:23.748Z,4.13
2019-06-07T03:38:22.171Z,4.10
2019-06-07T03:40:25.064Z,4.00
2019-06-07T03:42:29.147Z,4.00
2019-06-07T03:44:32.948Z,4.20
2019-06-07T03:46:37.508Z,3.73
2019-06-07T03:48:40.994Z,4.23
2019-06-07T03:50:42.401Z,4.27
2019-06-07T03:52:43.544Z,4.37
2019-06-07T03:54:47.179Z,3.40
2019-06-07T03:56:50.818Z,4.53
2019-06-07T03:58:53.838Z,3.87
2019-06-07T04:01:01.951Z,4.03
2019-06-07T04:03:01.211Z,3.70
2019-06-07T04:05:04.119Z,4.07
2019-06-07T04:07:07.009Z,4.57
2019-06-07T04:09:11.425Z,3.63
2019-06-07T04:11:14.339Z,4.90
2019-06-07T04:13:17.288Z,4.60
2019-06-07T04:15:20.267Z,4.37
2019-06-07T04:17:23.360Z,4.50
2019-06-07T04:19:26.763Z,4.77
2019-06-07T04:21:31.961Z,4.13
2019-06-07T04:23:37.415Z,3.83
2019-06-07T04:25:42.265Z,4.40
2019-06-07T04:27:41.381Z,4.27
2019-06-07T04:30:05.399Z,3.90
2019-06-07T04:31:47.824Z,4.10
2019-06-07T04:33:50.989Z,3.60
2019-06-07T04:35:53.891Z,3.97
2019-06-07T04:37:56.783Z,3.83
2019-06-07T04:40:00.887Z,4.03
2019-06-07T04:42:03.939Z,3.40
2019-06-07T04:44:06.826Z,3.27
2019-06-07T04:46:09.703Z,4.13
2019-06-07T04:48:12.605Z,3.53
2019-06-07T04:50:15.903Z,3.93
2019-06-07T04:52:18.869Z,3.10
2019-06-07T04:54:21.759Z,4.13
2019-06-07T04:56:24.636Z,3.40
2019-06-07T04:58:27.527Z,3.63
2019-06-07T05:00:49.786Z,3.87
2019-06-07T05:02:40.336Z,4.53
2019-06-07T05:04:42.398Z,3.80
2019-06-07T05:06:43.035Z,3.37
2019-06-07T05:08:45.914Z,4.03
2019-06-07T05:10:48.907Z,3.43
2019-06-07T05:12:51.788Z,3.77
2019-06-07T05:14:54.707Z,3.13
2019-06-07T05:16:58.465Z,3.63
2019-06-07T05:19:01.457Z,4.30
2019-06-07T05:21:05.110Z,4.33
2019-06-07T05:23:08.140Z,3.40
2019-06-07T05:25:12.519Z,4.63
2019-06-07T05:27:15.411Z,5.63
2019-06-07T05:29:18.895Z,4.50
2019-06-07T05:31:21.807Z,4.27
2019-06-07T05:33:24.657Z,4.27
2019-06-07T05:35:27.553Z,4.43
2019-06-07T05:37:33.424Z,4.63
2019-06-07T05:39:36.870Z,4.60
2019-06-07T05:41:40.642Z,4.23
2019-06-07T05:43:45.665Z,4.27
2019-06-07T05:45:46.854Z,4.60
2019-06-07T05:47:50.751Z,6.13
2019-06-07T05:49:50.084Z,5.27
2019-06-07T05:51:53.794Z,6.13
2019-06-07T05:53:57.451Z,6.30
2019-06-07T05:56:01.219Z,6.50
2019-06-07T05:58:05.176Z,6.18
2019-06-07T06:00:08.073Z,7.10
2019-06-07T06:02:22.336Z,6.20
2019-06-07T06:04:14.375Z,9.10
2019-06-07T06:06:17.365Z,7.00
2019-06-07T06:08:20.244Z,6.90
2019-06-07T06:10:24.648Z,6.90
2019-06-07T06:12:35.123Z,5.43
2019-06-07T06:14:31.313Z,7.53
2019-06-07T06:16:34.688Z,6.50
2019-06-07T06:18:38.022Z,7.57
2019-06-07T06:21:04.692Z,6.63
2019-06-07T06:22:46.041Z,7.10
2019-06-07T06:25:16.753Z,6.90
2019-06-07T06:26:54.846Z,6.50
2019-06-07T06:28:52.088Z,6.80
2019-06-07T06:30:55.000Z,5.50
2019-06-07T06:32:59.445Z,5.87
2019-06-07T06:35:02.299Z,6.50
2019-06-07T06:37:05.981Z,5.50
2019-06-07T06:39:08.956Z,6.17
2019-06-07T06:41:16.185Z,8.70
2019-06-07T06:43:15.426Z,7.73
2019-06-07T06:45:18.523Z,6.30
2019-06-07T06:47:21.600Z,6.23
2019-06-07T06:49:24.486Z,6.80
2019-06-07T06:51:27.407Z,5.87
2019-06-07T06:53:30.319Z,6.80
2019-06-07T06:55:33.196Z,5.43
2019-06-07T06:57:36.116Z,5.80
2019-06-07T06:59:41.771Z,5.83
2019-06-07T07:01:44.897Z,5.33
2019-06-07T07:04:06.806Z,5.83
2019-06-07T07:05:50.797Z,5.63
2019-06-07T07:07:53.010Z,5.87
2019-06-07T07:09:59.327Z,5.77
2019-06-07T07:12:10.921Z,5.43
2019-06-07T07:14:02.953Z,4.97
2019-06-07T07:16:07.372Z,5.40
2019-06-07T07:18:10.344Z,5.13
2019-06-07T07:20:13.224Z,5.30
2019-06-07T07:22:17.976Z,5.27
2019-06-07T07:24:22.243Z,4.90
2019-06-07T07:26:25.031Z,5.27
2019-06-07T07:28:27.924Z,4.83
2019-06-07T07:30:37.722Z,4.97
2019-06-07T07:32:45.062Z,4.83
2019-06-07T07:34:46.233Z,4.37
2019-06-07T07:36:51.005Z,4.70
2019-06-07T07:39:00.458Z,5.30
2019-06-07T07:41:07.723Z,5.53
2019-06-07T07:42:59.039Z,4.80
2019-06-07T07:45:01.997Z,4.73
2019-06-07T07:47:04.873Z,4.27
2019-06-07T07:49:07.787Z,3.90
2019-06-07T07:51:12.196Z,4.30
2019-06-07T07:53:15.079Z,4.10
2019-06-07T07:55:18.380Z,4.30
2019-06-07T07:57:21.171Z,4.00
2019-06-07T07:59:41.297Z,4.43
2019-06-07T08:01:28.564Z,3.80
2019-06-07T08:03:32.270Z,3.77
2019-06-07T08:05:43.087Z,4.83
2019-06-07T08:07:38.335Z,3.73
2019-06-07T08:09:41.855Z,3.77
2019-06-07T08:11:47.366Z,3.40
2019-06-07T08:13:50.489Z,3.57
2019-06-07T08:15:56.348Z,4.20
2019-06-07T08:17:59.784Z,4.20
2019-06-07T08:20:02.582Z,3.33
2019-06-07T08:22:01.880Z,3.80
2019-06-07T08:24:05.332Z,3.50
2019-06-07T08:26:07.290Z,4.27
2019-06-07T08:28:10.915Z,3.83
2019-06-07T08:30:47.207Z,4.10
2019-06-07T08:32:18.403Z,3.80
2019-06-07T08:34:21.317Z,3.93
2019-06-07T08:36:41.204Z,3.60
2019-06-07T08:38:46.444Z,3.23
2019-06-07T08:40:32.104Z,3.03
2019-06-07T08:42:48.486Z,5.83
2019-06-07T08:44:39.396Z,3.63
2019-06-07T08:46:42.540Z,3.27
2019-06-07T08:48:45.472Z,3.27
2019-06-07T08:50:54.198Z,2.50
2019-06-07T08:52:59.699Z,3.40
2019-06-07T08:54:57.819Z,3.43
2019-06-07T08:57:16.875Z,3.27
2019-06-07T08:59:11.074Z,3.50
2019-06-07T09:01:08.698Z,3.67
2019-06-07T09:03:10.529Z,3.27
2019-06-07T09:05:13.430Z,3.90
2019-06-07T09:07:19.892Z,3.90
2019-06-07T09:09:20.627Z,4.10
2019-06-07T09:11:24.627Z,3.50
2019-06-07T09:13:27.603Z,3.43
2019-06-07T09:15:31.170Z,3.23
2019-06-07T09:17:34.339Z,4.93
2019-06-07T09:19:36.972Z,4.50
2019-06-07T09:21:41.132Z,3.23
2019-06-07T09:23:44.063Z,4.00
2019-06-07T09:25:57.387Z,3.57
2019-06-07T09:27:50.143Z,3.20
2019-06-07T09:30:00.593Z,2.97
2019-06-07T09:32:04.401Z,2.80
2019-06-07T09:34:10.306Z,3.07
2019-06-07T09:36:09.346Z,3.60
2019-06-07T09:38:23.681Z,4.07
2019-06-07T09:40:25.089Z,2.83
2019-06-07T09:42:14.896Z,3.30
2019-06-07T09:44:24.598Z,2.90
2019-06-07T09:46:21.083Z,2.55
2019-06-07T09:49:08.996Z,3.83
2019-06-07T09:50:28.067Z,3.97
2019-06-07T09:52:56.520Z,3.93
2019-06-07T09:56:40.393Z,3.10
2019-06-07T09:58:53.130Z,3.00
2019-06-07T10:00:46.271Z,2.83
2019-06-07T10:02:49.248Z,2.37
2019-06-07T10:04:52.221Z,2.67
2019-06-07T10:07:03.978Z,3.30
2019-06-07T10:10:07.140Z,2.90
2019-06-07T10:11:04.866Z,2.40
2019-06-07T10:13:08.886Z,2.23
2019-06-07T10:15:12.789Z,2.60
2019-06-07T10:17:16.468Z,3.17
2019-06-07T10:19:19.363Z,2.60
2019-06-07T10:21:22.368Z,2.90
2019-06-07T10:23:25.249Z,3.53
2019-06-07T10:25:28.608Z,2.50
2019-06-07T10:27:31.587Z,2.90
2019-06-07T10:29:34.488Z,2.53
2019-06-07T10:31:38.164Z,2.80
2019-06-07T10:33:41.151Z,2.63
2019-06-07T10:35:44.651Z,2.17
2019-06-07T10:37:47.635Z,1.95
2019-06-07T10:39:50.618Z,2.30
2019-06-07T10:41:54.201Z,2.70
2019-06-07T10:43:57.607Z,2.50
2019-06-07T10:46:01.474Z,2.57
2019-06-07T10:48:03.777Z,2.20
2019-06-07T10:50:07.929Z,2.73
2019-06-07T10:52:10.446Z,2.37
2019-06-07T10:54:24.661Z,2.70
2019-06-07T10:56:16.619Z,2.77
2019-06-07T10:58:21.052Z,3.00
2019-06-07T11:00:23.957Z,3.50
2019-06-07T11:02:26.912Z,4.53
2019-06-07T11:04:29.795Z,3.47
2019-06-07T11:06:32.688Z,3.13
2019-06-07T11:08:37.083Z,2.83
2019-06-07T11:10:40.069Z,2.60
2019-06-07T11:12:44.671Z,2.57
2019-06-07T11:14:47.563Z,2.60
2019-06-07T11:16:50.452Z,2.07
2019-06-07T11:18:53.364Z,2.50
2019-06-07T11:20:57.012Z,1.80
2019-06-07T11:22:59.933Z,2.40
2019-06-07T11:25:04.526Z,2.30
2019-06-07T11:27:09.623Z,2.60
2019-06-07T11:29:14.657Z,2.17
2019-06-07T11:31:16.294Z,2.70
2019-06-07T11:33:19.193Z,2.27
2019-06-07T11:35:22.582Z,2.37
2019-06-07T11:37:26.047Z,2.70
2019-06-07T11:39:28.924Z,2.30
2019-06-07T11:41:32.595Z,1.90
2019-06-07T11:43:35.479Z,2.17
2019-06-07T11:45:38.501Z,2.30
2019-06-07T11:47:41.389Z,3.07
2019-06-07T11:49:44.531Z,3.10
2019-06-07T11:51:47.508Z,2.70
2019-06-07T11:53:50.500Z,2.10
2019-06-07T11:55:55.004Z,2.00
2019-06-07T11:57:57.883Z,2.53
2019-06-07T12:00:00.758Z,2.17
2019-06-07T12:02:03.668Z,2.27
2019-06-07T12:04:07.844Z,2.27
2019-06-07T12:06:12.141Z,2.10
2019-06-07T12:08:16.087Z,3.00
2019-06-07T12:10:22.880Z,2.57
2019-06-07T12:12:22.352Z,2.23
2019-06-07T12:14:25.243Z,2.10
2019-06-07T12:16:29.417Z,2.60
2019-06-07T12:18:32.296Z,2.57
2019-06-07T12:20:35.220Z,2.40
2019-06-07T12:22:38.201Z,2.20
2019-06-07T12:24:41.839Z,2.17
2019-06-07T12:26:44.752Z,2.80
2019-06-07T12:28:47.623Z,2.50
2019-06-07T12:30:50.507Z,1.93
2019-06-07T12:32:53.421Z,1.90
2019-06-07T12:34:56.296Z,2.70
2019-06-07T12:36:59.181Z,2.40
2019-06-07T12:39:02.075Z,2.20
2019-06-07T12:41:05.747Z,2.20
2019-06-07T12:43:08.642Z,2.60
2019-06-07T12:45:12.897Z,2.40
2019-06-07T12:47:15.043Z,1.90
2019-06-07T12:49:17.592Z,2.50
2019-06-07T12:51:21.280Z,2.33
2019-06-07T12:53:27.643Z,2.83
2019-06-07T12:55:27.255Z,2.40
2019-06-07T12:57:30.213Z,2.27
2019-06-07T12:59:33.539Z,2.60
2019-06-07T13:01:36.450Z,2.60
2019-06-07T13:03:40.210Z,2.70
2019-06-07T13:05:43.111Z,2.70
2019-06-07T13:07:46.807Z,2.43
2019-06-07T13:09:49.704Z,2.80
2019-06-07T13:11:53.383Z,2.93
2019-06-07T13:13:57.076Z,4.17
2019-06-07T13:15:59.958Z,3.13
2019-06-07T13:18:02.854Z,2.70
2019-06-07T13:20:06.667Z,2.53
2019-06-07T13:22:10.344Z,2.43
2019-06-07T13:24:13.328Z,2.40
2019-06-07T13:26:16.951Z,2.70
2019-06-07T13:28:20.812Z,2.10
2019-06-07T13:30:25.413Z,2.30
2019-06-07T13:32:28.073Z,2.60
2019-06-07T13:34:29.667Z,2.40
2019-06-07T13:36:34.081Z,2.53
2019-06-07T13:38:37.067Z,2.10
2019-06-07T13:40:40.055Z,2.37
2019-06-07T13:42:42.958Z,2.53
2019-06-07T13:44:46.658Z,2.60
2019-06-07T13:46:51.153Z,2.40
2019-06-07T13:48:54.263Z,2.83
2019-06-07T13:50:57.128Z,2.20
2019-06-07T13:53:00.003Z,2.30
2019-06-07T13:55:03.003Z,2.10
2019-06-07T13:57:06.653Z,2.57
2019-06-07T13:59:09.566Z,2.70
2019-06-07T14:01:12.454Z,2.30
2019-06-07T14:03:16.143Z,2.33
2019-06-07T14:05:19.052Z,2.33
2019-06-07T14:07:23.559Z,2.67
2019-06-07T14:09:27.465Z,2.97
2019-06-07T14:11:30.085Z,2.57
2019-06-07T14:13:31.887Z,2.40
2019-06-07T14:15:34.771Z,2.03
2019-06-07T14:17:38.449Z,2.10
2019-06-07T14:19:42.140Z,2.27
2019-06-07T14:21:45.080Z,2.40
2019-06-07T14:23:49.290Z,2.27
2019-06-07T14:25:50.935Z,2.43
2019-06-07T14:27:54.566Z,2.40
2019-06-07T14:29:57.478Z,2.20
2019-06-07T14:32:00.779Z,3.00
2019-06-07T14:34:03.728Z,2.00
2019-06-07T14:36:06.634Z,2.70
2019-06-07T14:38:09.531Z,2.20
2019-06-07T14:40:12.606Z,2.30
2019-06-07T14:42:15.490Z,2.20
2019-06-07T14:44:18.371Z,1.97
2019-06-07T14:46:21.357Z,2.33
2019-06-07T14:48:24.227Z,2.10
2019-06-07T14:50:28.188Z,2.27
2019-06-07T14:52:30.688Z,2.00
2019-06-07T14:54:36.270Z,2.50
2019-06-07T14:56:37.776Z,1.90
2019-06-07T14:58:43.537Z,2.17
2019-06-07T15:00:43.736Z,2.50
2019-06-07T15:02:46.752Z,1.80
2019-06-07T15:04:49.736Z,2.07
2019-06-07T15:06:53.565Z,2.90
2019-06-07T15:08:58.072Z,2.13
2019-06-07T15:11:01.732Z,2.20
2019-06-07T15:13:04.628Z,2.40
2019-06-07T15:15:07.633Z,2.40
2019-06-07T15:17:12.002Z,2.07
2019-06-07T15:19:15.840Z,1.90
2019-06-07T15:21:20.360Z,2.23
2019-06-07T15:23:24.322Z,2.03
2019-06-07T15:25:27.208Z,2.17
2019-06-07T15:27:31.272Z,2.40
2019-06-07T15:29:33.932Z,2.37
2019-06-07T15:31:38.711Z,2.07
2019-06-07T15:33:40.596Z,2.73
2019-06-07T15:35:43.479Z,2.57
2019-06-07T15:37:46.483Z,2.20
2019-06-07T15:39:49.366Z,2.50
2019-06-07T15:41:53.008Z,2.80
2019-06-07T15:43:56.518Z,2.47
2019-06-07T15:45:59.675Z,3.10
2019-06-07T15:48:02.770Z,2.70
2019-06-07T15:50:06.419Z,2.63
2019-06-07T15:52:10.318Z,2.43
2019-06-07T15:54:13.222Z,1.63
2019-06-07T15:56:16.185Z,2.80
2019-06-07T15:58:19.079Z,2.13
2019-06-07T16:00:23.537Z,2.40
2019-06-07T16:02:26.428Z,2.30
2019-06-07T16:04:29.348Z,2.33
2019-06-07T16:06:34.049Z,2.77
2019-06-07T16:08:36.316Z,2.30
2019-06-07T16:10:38.845Z,2.80
2019-06-07T16:12:57.637Z,2.67
2019-06-07T16:14:46.072Z,2.40
2019-06-07T16:16:48.948Z,2.37
2019-06-07T16:18:51.867Z,2.10
2019-06-07T16:20:54.864Z,2.20
2019-06-07T16:22:58.541Z,2.33
2019-06-07T16:25:01.521Z,2.50
2019-06-07T16:27:05.857Z,2.47
2019-06-07T16:29:08.827Z,2.57
2019-06-07T16:31:11.719Z,2.47
2019-06-07T16:33:14.604Z,2.47
2019-06-07T16:35:18.924Z,3.00
2019-06-07T16:37:21.785Z,3.10
2019-06-07T16:39:24.777Z,3.17
2019-06-07T16:41:27.753Z,3.70
2019-06-07T16:43:32.144Z,2.97
2019-06-07T16:45:36.422Z,2.23
2019-06-07T16:47:40.362Z,2.63
2019-06-07T16:49:41.026Z,2.53
2019-06-07T16:51:45.396Z,2.37
2019-06-07T16:53:48.607Z,1.83
2019-06-07T16:55:51.259Z,1.93
2019-06-07T16:57:54.179Z,2.13
2019-06-07T16:59:57.055Z,2.63
2019-06-07T17:01:59.931Z,2.33
2019-06-07T17:04:03.329Z,2.30
2019-06-07T17:06:06.199Z,3.07
2019-06-07T17:08:09.072Z,2.80
2019-06-07T17:10:12.080Z,3.77
2019-06-07T17:12:15.065Z,2.70
2019-06-07T17:14:18.077Z,2.43
2019-06-07T17:16:21.720Z,3.10
2019-06-07T17:18:25.453Z,1.87
2019-06-07T17:20:28.343Z,1.40
2019-06-07T17:22:31.997Z,1.03
2019-06-07T17:24:34.903Z,0.73
2019-06-07T17:26:39.318Z,0.90
2019-06-07T17:28:41.984Z,1.30
2019-06-07T17:30:46.104Z,1.10
2019-06-07T17:32:57.703Z,0.87
2019-06-07T17:34:51.965Z,0.67
2019-06-07T17:36:54.855Z,0.80
2019-06-07T17:38:57.748Z,0.60
2019-06-07T17:41:01.426Z,0.70
2019-06-07T17:43:05.130Z,0.60
2019-06-07T17:45:08.027Z,0.90
2019-06-07T17:47:11.716Z,0.70
2019-06-07T17:49:14.694Z,1.00
2019-06-07T17:51:17.583Z,0.67
2019-06-07T17:53:20.555Z,1.43
2019-06-07T17:55:23.543Z,0.90
2019-06-07T17:57:26.415Z,0.70
2019-06-07T17:59:29.294Z,0.60
2019-06-07T18:01:41.185Z,0.57
2019-06-07T18:03:35.199Z,0.70
2019-06-07T18:05:38.866Z,0.70
2019-06-07T18:07:41.855Z,0.53
2019-06-07T18:09:45.395Z,0.90
2019-06-07T18:11:49.916Z,0.60
2019-06-07T18:14:06.856Z,1.03
2019-06-07T18:15:59.267Z,0.70
2019-06-07T18:17:58.853Z,0.60
2019-06-07T18:20:02.645Z,0.90
2019-06-07T18:22:06.279Z,0.80
2019-06-07T18:24:10.021Z,0.63
2019-06-07T18:26:14.422Z,0.60
2019-06-07T18:28:17.365Z,0.70
2019-06-07T18:30:20.275Z,0.60
2019-06-07T18:32:23.183Z,0.70
2019-06-07T18:34:26.164Z,0.83
2019-06-07T18:36:29.142Z,0.70
2019-06-07T18:38:32.155Z,0.80
2019-06-07T18:40:36.244Z,0.70
2019-06-07T18:42:40.657Z,0.60
2019-06-07T18:44:45.046Z,0.50
2019-06-07T18:46:48.167Z,0.63
2019-06-07T18:48:50.940Z,0.60
2019-06-07T18:50:54.690Z,0.60
2019-06-07T18:52:56.904Z,0.73
2019-06-07T18:54:59.990Z,0.73
2019-06-07T18:57:02.875Z,0.63
2019-06-07T18:59:05.753Z,0.87
2019-06-07T19:01:08.732Z,0.80
2019-06-07T19:03:11.630Z,1.00
2019-06-07T19:05:14.702Z,1.00
2019-06-07T19:07:17.575Z,0.73
2019-06-07T19:09:20.452Z,0.83
2019-06-07T19:11:23.388Z,0.90
2019-06-07T19:13:27.979Z,0.77
2019-06-07T19:15:31.772Z,0.90
2019-06-07T19:17:34.639Z,0.70
2019-06-07T19:19:37.523Z,0.90
2019-06-07T19:21:41.928Z,0.70
2019-06-07T19:23:44.947Z,0.80
2019-06-07T19:25:47.812Z,0.90
2019-06-07T19:27:52.695Z,1.63
2019-06-07T19:29:55.375Z,0.80
2019-06-07T19:31:59.065Z,1.10
2019-06-07T19:34:01.397Z,0.80
2019-06-07T19:36:04.063Z,1.63
2019-06-07T19:38:07.753Z,1.20
2019-06-07T19:40:12.739Z,0.73
2019-06-07T19:42:15.669Z,0.50
2019-06-07T19:44:18.644Z,0.67
2019-06-07T19:46:21.647Z,0.90
2019-06-07T19:48:26.011Z,1.00
2019-06-07T19:50:28.912Z,1.47
2019-06-07T19:52:31.841Z,1.00
2019-06-07T19:54:35.306Z,0.77
2019-06-07T19:56:39.009Z,0.77
2019-06-07T19:58:41.992Z,0.70
2019-06-07T20:00:47.124Z,0.80
2019-06-07T20:02:50.115Z,0.60
2019-06-07T20:04:57.169Z,0.60
2019-06-07T20:06:56.768Z,0.63
2019-06-07T20:09:01.062Z,0.93
2019-06-07T20:11:02.947Z,0.77
2019-06-07T20:13:05.839Z,1.73
2019-06-07T20:15:27.073Z,0.70
2019-06-07T20:17:14.649Z,0.73
2019-06-07T20:19:17.546Z,0.60
2019-06-07T20:21:21.976Z,0.67
2019-06-07T20:23:25.671Z,0.90
2019-06-07T20:25:28.644Z,0.70
2019-06-07T20:27:31.523Z,0.67
2019-06-07T20:29:34.419Z,1.10
2019-06-07T20:31:37.424Z,1.07
2019-06-07T20:33:42.207Z,0.70
2019-06-07T20:35:45.106Z,0.70
2019-06-07T20:37:48.013Z,0.70
2019-06-07T20:39:50.904Z,0.80
2019-06-07T20:41:54.610Z,0.70
2019-06-07T20:43:57.775Z,0.90
2019-06-07T20:46:04.740Z,0.80
2019-06-07T20:48:06.433Z,0.70
2019-06-07T20:50:09.264Z,0.90
2019-06-07T20:52:13.784Z,0.80
2019-06-07T20:54:16.772Z,0.70
2019-06-07T20:56:20.459Z,0.90
2019-06-07T20:58:25.059Z,0.83
2019-06-07T21:00:27.971Z,0.80
2019-06-07T21:02:32.362Z,0.97
2019-06-07T21:04:35.387Z,0.70
2019-06-07T21:06:39.063Z,0.80
2019-06-07T21:08:43.456Z,0.87
2019-06-07T21:10:46.366Z,0.70
2019-06-07T21:12:49.341Z,0.60
2019-06-07T21:14:52.227Z,0.80
2019-06-07T21:16:55.212Z,0.73
2019-06-07T21:18:58.318Z,0.60
2019-06-07T21:21:02.373Z,0.83
2019-06-07T21:23:05.315Z,0.80
2019-06-07T21:25:09.559Z,0.60
2019-06-07T21:27:11.877Z,0.70
2019-06-07T21:29:14.847Z,0.80
2019-06-07T21:31:17.831Z,0.60
2019-06-07T21:33:22.215Z,0.60
2019-06-07T21:35:25.135Z,0.60
2019-06-07T21:37:29.665Z,1.00
2019-06-07T21:39:32.633Z,0.70
2019-06-07T21:41:37.025Z,0.80
2019-06-07T21:43:40.032Z,0.90
2019-06-07T21:45:42.906Z,0.60
2019-06-07T21:47:46.425Z,0.70
2019-06-07T21:49:50.104Z,1.33
2019-06-07T21:51:54.487Z,1.70
2019-06-07T21:53:57.516Z,0.80
2019-06-07T21:56:00.489Z,0.63
2019-06-07T21:58:05.167Z,0.70
2019-06-07T22:00:11.460Z,0.70
2019-06-07T22:02:14.411Z,0.80
2019-06-07T22:04:17.295Z,0.50
2019-06-07T22:06:20.186Z,0.70
2019-06-07T22:08:23.107Z,0.70
2019-06-07T22:10:27.492Z,0.70
2019-06-07T22:12:30.610Z,0.70
2019-06-07T22:14:33.479Z,0.77
2019-06-07T22:16:37.902Z,0.80
2019-06-07T22:18:40.812Z,0.60
2019-06-07T22:20:44.459Z,0.90
2019-06-07T22:22:47.363Z,1.20
2019-06-07T22:24:50.438Z,0.90
2019-06-07T22:26:53.443Z,0.90
2019-06-07T22:28:57.090Z,0.63
2019-06-07T22:30:59.985Z,0.73
2019-06-07T22:33:02.893Z,0.63
2019-06-07T22:35:06.712Z,0.50
2019-06-07T22:37:09.247Z,0.60
2019-06-07T22:39:11.853Z,0.90
2019-06-07T22:41:16.112Z,0.77
2019-06-07T22:43:19.440Z,0.70
2019-06-07T22:45:22.319Z,0.60
2019-06-07T22:47:25.206Z,0.60
2019-06-07T22:49:28.287Z,0.67
2019-06-07T22:51:31.192Z,1.33
2019-06-07T22:53:34.820Z,0.73
2019-06-07T22:55:37.757Z,0.80
2019-06-07T22:57:55.527Z,1.27
2019-06-07T22:59:59.004Z,0.67
2019-06-07T23:02:02.665Z,1.10
2019-06-07T23:04:05.547Z,0.80
2019-06-07T23:06:08.516Z,0.70
2019-06-07T23:08:13.062Z,0.80
2019-06-07T23:10:15.839Z,0.60
2019-06-07T23:12:19.555Z,0.80
2019-06-07T23:14:21.907Z,1.00
2019-06-07T23:16:24.891Z,0.90
2019-06-07T23:18:27.804Z,0.80
2019-06-07T23:20:31.467Z,0.60
2019-06-07T23:22:34.388Z,0.90
2019-06-07T23:24:37.830Z,0.70
2019-06-07T23:26:40.825Z,0.73
2019-06-07T23:28:43.806Z,0.70
2019-06-07T23:30:46.731Z,0.80
2019-06-07T23:32:49.841Z,0.80
2019-06-07T23:34:53.011Z,0.93
2019-06-07T23:36:55.943Z,0.90
2019-06-07T23:39:00.360Z,0.70
2019-06-07T23:41:03.236Z,0.97
2019-06-07T23:43:06.148Z,0.70
2019-06-07T23:45:11.871Z,0.73
2019-06-07T23:47:15.512Z,0.97
2019-06-07T23:49:17.594Z,0.60
2019-06-07T23:51:20.316Z,0.80
2019-06-07T23:53:23.295Z,0.60
2019-06-07T23:55:27.683Z,0.60
2019-06-07T23:57:30.695Z,0.70
2019-06-07T23:59:33.576Z,0.80
